createdAt,value
2019-05-19T00:00:08.444Z,13.36
2019-05-19T00:02:40.725Z,13.32
2019-05-19T00:05:09.527Z,13.27
2019-05-19T00:07:38.819Z,13.29
2019-05-19T00:10:08.649Z,13.27
2019-05-19T00:12:38.214Z,13.24
2019-05-19T00:15:07.837Z,13.26
2019-05-19T00:17:37.223Z,13.23
2019-05-19T00:20:07.044Z,13.22
2019-05-19T00:22:36.427Z,13.23
2019-05-19T00:25:06.056Z,13.22
2019-05-19T00:27:35.447Z,13.17
2019-05-19T00:30:07.912Z,13.16
2019-05-19T00:32:37.234Z,13.14
2019-05-19T00:35:06.792Z,13.12
2019-05-19T00:37:37.716Z,13.04
2019-05-19T00:40:07.990Z,13.04
2019-05-19T00:42:37.320Z,12.99
2019-05-19T00:45:08.743Z,12.93
2019-05-19T00:47:38.221Z,12.95
2019-05-19T00:50:08.886Z,12.94
2019-05-19T00:52:38.388Z,12.97
2019-05-19T00:55:07.910Z,12.93
2019-05-19T00:57:37.405Z,12.88
2019-05-19T01:00:08.124Z,12.86
2019-05-19T01:02:37.507Z,12.84
2019-05-19T01:05:08.037Z,12.82
2019-05-19T01:07:37.413Z,12.80
2019-05-19T01:10:07.646Z,12.71
2019-05-19T01:12:37.019Z,12.71
2019-05-19T01:15:09.020Z,12.74
2019-05-19T01:17:38.313Z,12.70
2019-05-19T01:20:08.266Z,12.65
2019-05-19T01:22:37.586Z,12.66
2019-05-19T01:25:07.510Z,12.65
2019-05-19T01:27:36.894Z,12.63
2019-05-19T01:30:10.862Z,12.66
2019-05-19T01:32:40.249Z,12.61
2019-05-19T01:35:09.694Z,12.57
2019-05-19T01:37:38.992Z,12.56
2019-05-19T01:40:09.687Z,12.60
2019-05-19T01:42:39.075Z,12.59
2019-05-19T01:45:08.801Z,12.57
2019-05-19T01:47:38.110Z,12.58
2019-05-19T01:50:17.536Z,12.52
2019-05-19T01:52:40.545Z,12.55
2019-05-19T01:55:10.019Z,12.57
2019-05-19T01:57:39.318Z,12.56
2019-05-19T02:00:09.735Z,12.54
2019-05-19T02:02:39.035Z,12.53
2019-05-19T02:05:08.795Z,12.54
2019-05-19T02:07:38.090Z,12.52
2019-05-19T02:10:08.504Z,12.46
2019-05-19T02:12:37.796Z,12.48
2019-05-19T02:15:09.237Z,12.45
2019-05-19T02:17:38.525Z,12.43
2019-05-19T02:20:08.789Z,12.43
2019-05-19T02:22:38.072Z,12.43
2019-05-19T02:25:09.080Z,12.39
2019-05-19T02:27:38.361Z,12.35
2019-05-19T02:30:09.928Z,12.38
2019-05-19T02:32:39.228Z,12.39
2019-05-19T02:35:08.702Z,12.36
2019-05-19T02:37:37.994Z,12.37
2019-05-19T02:40:07.648Z,12.39
2019-05-19T02:42:41.458Z,12.37
2019-05-19T02:45:12.552Z,12.37
2019-05-19T02:47:44.675Z,12.39
2019-05-19T02:50:14.256Z,12.40
2019-05-19T02:52:46.496Z,12.41
2019-05-19T02:55:16.150Z,12.41
2019-05-19T02:57:45.810Z,12.43
2019-05-19T03:00:15.289Z,12.36
2019-05-19T03:02:44.576Z,12.32
2019-05-19T03:05:14.754Z,12.35
2019-05-19T03:07:44.057Z,12.36
2019-05-19T03:10:13.366Z,12.33
2019-05-19T03:12:42.648Z,12.32
2019-05-19T03:15:11.963Z,12.29
2019-05-19T03:17:41.354Z,12.25
2019-05-19T03:20:10.825Z,12.24
2019-05-19T03:22:40.113Z,12.27
2019-05-19T03:25:11.118Z,12.24
2019-05-19T03:27:40.404Z,12.22
2019-05-19T03:30:20.639Z,12.21
2019-05-19T03:32:51.580Z,12.15
2019-05-19T03:35:20.891Z,12.16
2019-05-19T03:37:50.180Z,12.16
2019-05-19T03:40:21.987Z,12.18
2019-05-19T03:42:51.783Z,12.14
2019-05-19T03:45:21.171Z,12.14
2019-05-19T03:47:50.451Z,12.14
2019-05-19T03:50:20.834Z,12.14
2019-05-19T03:52:50.136Z,12.16
2019-05-19T03:55:19.477Z,12.21
2019-05-19T03:57:48.748Z,12.15
2019-05-19T04:00:18.502Z,12.14
2019-05-19T04:02:47.806Z,12.12
2019-05-19T04:05:17.186Z,12.11
2019-05-19T04:07:46.586Z,12.11
2019-05-19T04:10:16.066Z,12.13
2019-05-19T04:12:45.391Z,12.11
2019-05-19T04:15:14.954Z,12.10
2019-05-19T04:17:44.253Z,12.14
2019-05-19T04:20:13.839Z,12.14
2019-05-19T04:22:43.155Z,12.14
2019-05-19T04:25:12.558Z,12.17
2019-05-19T04:27:41.848Z,12.14
2019-05-19T04:30:11.339Z,12.18
2019-05-19T04:32:41.576Z,12.19
2019-05-19T04:35:10.954Z,12.19
2019-05-19T04:37:40.253Z,12.26
2019-05-19T04:40:09.727Z,12.34
2019-05-19T04:42:39.864Z,12.30
2019-05-19T04:45:10.136Z,12.37
2019-05-19T04:47:39.432Z,12.41
2019-05-19T04:50:08.950Z,12.40
2019-05-19T04:52:38.234Z,12.40
2019-05-19T04:55:07.696Z,12.34
2019-05-19T04:57:37.051Z,12.35
2019-05-19T05:00:08.097Z,12.47
2019-05-19T05:02:37.395Z,12.55
2019-05-19T05:05:07.077Z,12.64
2019-05-19T05:07:36.389Z,12.63
2019-05-19T05:10:06.315Z,12.65
2019-05-19T05:12:35.642Z,12.77
2019-05-19T05:15:06.523Z,12.84
2019-05-19T05:17:35.840Z,12.85
2019-05-19T05:20:07.392Z,12.81
2019-05-19T05:22:36.715Z,12.77
2019-05-19T05:25:07.167Z,12.86
2019-05-19T05:27:36.580Z,12.92
2019-05-19T05:30:07.599Z,12.87
2019-05-19T05:32:36.894Z,12.78
2019-05-19T05:35:06.852Z,12.87
2019-05-19T05:37:36.172Z,12.91
2019-05-19T05:40:07.241Z,12.75
2019-05-19T05:42:37.479Z,12.83
2019-05-19T05:45:10.299Z,12.90
2019-05-19T05:47:39.586Z,12.98
2019-05-19T05:50:09.247Z,13.00
2019-05-19T05:52:39.184Z,13.03
2019-05-19T05:55:08.821Z,13.06
2019-05-19T05:57:38.103Z,13.18
2019-05-19T06:00:08.861Z,13.18
2019-05-19T06:02:38.168Z,13.19
2019-05-19T06:05:07.913Z,13.24
2019-05-19T06:07:37.230Z,13.21
2019-05-19T06:10:08.103Z,13.38
2019-05-19T06:12:37.424Z,13.40
2019-05-19T06:15:06.898Z,13.49
2019-05-19T06:17:36.248Z,13.51
2019-05-19T06:20:07.658Z,13.53
2019-05-19T06:22:54.598Z,13.48
2019-05-19T06:25:09.817Z,13.56
2019-05-19T06:27:39.141Z,13.54
2019-05-19T06:30:09.076Z,13.50
2019-05-19T06:32:41.227Z,13.62
2019-05-19T06:35:10.835Z,13.74
2019-05-19T06:37:40.179Z,13.74
2019-05-19T06:40:11.048Z,13.84
2019-05-19T06:42:40.386Z,14.01
2019-05-19T06:45:10.177Z,14.06
2019-05-19T06:47:39.661Z,14.06
2019-05-19T06:50:09.351Z,13.84
2019-05-19T06:52:38.676Z,13.81
2019-05-19T06:55:08.419Z,13.65
2019-05-19T06:57:37.707Z,13.64
2019-05-19T07:00:07.405Z,13.64
2019-05-19T07:02:36.725Z,13.70
2019-05-19T07:05:06.859Z,13.62
2019-05-19T07:07:36.152Z,13.86
2019-05-19T07:10:08.631Z,13.84
2019-05-19T07:12:37.941Z,13.74
2019-05-19T07:15:07.769Z,13.82
2019-05-19T07:17:37.082Z,13.99
2019-05-19T07:20:06.407Z,14.05
2019-05-19T07:22:37.647Z,13.89
2019-05-19T07:25:07.707Z,14.16
2019-05-19T07:27:37.015Z,14.15
2019-05-19T07:30:09.608Z,14.11
2019-05-19T07:32:38.895Z,14.23
2019-05-19T07:35:08.390Z,14.33
2019-05-19T07:37:37.776Z,14.43
2019-05-19T07:40:07.461Z,14.72
2019-05-19T07:42:36.825Z,14.77
2019-05-19T07:45:06.877Z,14.96
2019-05-19T07:47:36.201Z,14.72
2019-05-19T07:50:06.171Z,14.34
2019-05-19T07:52:36.397Z,14.41
2019-05-19T07:55:06.772Z,14.47
2019-05-19T07:57:37.109Z,14.54
2019-05-19T08:00:09.987Z,14.38
2019-05-19T08:02:39.350Z,14.36
2019-05-19T08:05:09.138Z,14.33
2019-05-19T08:07:38.620Z,14.37
2019-05-19T08:10:08.251Z,14.43
2019-05-19T08:12:37.698Z,14.45
2019-05-19T08:15:08.034Z,14.69
2019-05-19T08:17:37.344Z,14.61
2019-05-19T08:20:07.672Z,14.46
2019-05-19T08:22:38.075Z,14.59
2019-05-19T08:25:07.999Z,14.57
2019-05-19T08:27:37.308Z,14.53
2019-05-19T08:30:06.864Z,14.37
2019-05-19T08:32:36.186Z,14.36
2019-05-19T08:35:07.359Z,14.50
2019-05-19T08:37:36.722Z,14.52
2019-05-19T08:40:06.851Z,14.79
2019-05-19T08:42:36.233Z,14.97
2019-05-19T08:45:07.406Z,15.22
2019-05-19T08:47:37.547Z,15.15
2019-05-19T08:50:07.338Z,15.15
2019-05-19T08:52:36.635Z,15.38
2019-05-19T08:55:06.296Z,15.41
2019-05-19T08:57:35.664Z,15.74
2019-05-19T09:00:06.860Z,15.76
2019-05-19T09:02:36.159Z,16.01
2019-05-19T09:05:06.644Z,16.11
2019-05-19T09:07:35.996Z,16.09
2019-05-19T09:10:07.657Z,16.41
2019-05-19T09:12:37.488Z,16.37
2019-05-19T09:15:07.630Z,16.39
2019-05-19T09:17:36.912Z,16.08
2019-05-19T09:20:07.217Z,16.18
2019-05-19T09:22:37.455Z,16.35
2019-05-19T09:25:07.445Z,16.49
2019-05-19T09:27:36.787Z,16.67
2019-05-19T09:30:10.147Z,16.75
2019-05-19T09:32:39.485Z,16.34
2019-05-19T09:35:09.247Z,16.39
2019-05-19T09:37:38.557Z,16.85
2019-05-19T09:40:08.570Z,17.28
2019-05-19T09:42:38.859Z,18.18
2019-05-19T09:45:09.932Z,19.40
2019-05-19T09:47:39.653Z,19.91
2019-05-19T09:50:09.315Z,19.73
2019-05-19T09:52:38.682Z,19.04
2019-05-19T09:55:08.544Z,18.31
2019-05-19T09:57:38.113Z,18.66
2019-05-19T10:00:08.058Z,19.77
2019-05-19T10:02:37.614Z,20.00
2019-05-19T10:05:07.789Z,19.75
2019-05-19T10:07:37.379Z,20.28
2019-05-19T10:10:27.088Z,20.51
2019-05-19T10:12:56.427Z,20.00
2019-05-19T10:15:25.733Z,19.99
2019-05-19T10:17:55.029Z,19.50
2019-05-19T10:20:24.378Z,18.99
2019-05-19T10:22:53.780Z,19.14
2019-05-19T10:25:23.559Z,19.00
2019-05-19T10:27:52.947Z,19.12
2019-05-19T10:30:22.374Z,19.76
2019-05-19T10:32:51.681Z,19.27
2019-05-19T10:35:21.039Z,19.84
2019-05-19T10:37:50.345Z,20.47
2019-05-19T10:40:19.927Z,21.60
2019-05-19T10:42:49.198Z,21.43
2019-05-19T10:45:19.053Z,20.39
2019-05-19T10:47:48.413Z,20.96
2019-05-19T10:50:17.955Z,21.60
2019-05-19T10:52:47.228Z,21.91
2019-05-19T10:55:16.544Z,21.75
2019-05-19T10:57:45.827Z,21.76
2019-05-19T11:00:15.720Z,21.47
2019-05-19T11:02:45.042Z,20.91
2019-05-19T11:05:14.601Z,21.60
2019-05-19T11:07:43.905Z,22.10
2019-05-19T11:10:13.533Z,22.98
2019-05-19T11:12:43.015Z,22.84
2019-05-19T11:15:12.527Z,23.74
2019-05-19T11:17:41.826Z,22.92
2019-05-19T11:20:11.253Z,23.57
2019-05-19T11:22:40.599Z,23.23
2019-05-19T11:25:10.348Z,24.13
2019-05-19T11:27:39.646Z,23.56
2019-05-19T11:30:09.116Z,22.98
2019-05-19T11:32:38.388Z,23.42
2019-05-19T11:35:08.057Z,23.54
2019-05-19T11:37:37.661Z,23.56
2019-05-19T11:40:07.075Z,22.66
2019-05-19T11:42:37.215Z,23.44
2019-05-19T11:45:07.997Z,23.63
2019-05-19T11:47:37.304Z,23.99
2019-05-19T11:50:07.093Z,23.83
2019-05-19T11:52:36.377Z,23.69
2019-05-19T11:55:06.532Z,24.06
2019-05-19T11:57:35.814Z,24.69
2019-05-19T12:00:06.971Z,25.56
2019-05-19T12:02:36.267Z,25.96
2019-05-19T12:05:06.231Z,25.81
2019-05-19T12:07:35.542Z,25.35
2019-05-19T12:10:05.717Z,25.94
2019-05-19T12:12:34.986Z,25.16
2019-05-19T12:15:07.201Z,25.82
2019-05-19T12:17:35.754Z,26.36
2019-05-19T12:20:05.679Z,26.48
2019-05-19T12:22:34.972Z,27.30
2019-05-19T12:25:05.784Z,27.54
2019-05-19T12:27:35.063Z,27.08
2019-05-19T12:30:06.114Z,27.17
2019-05-19T12:32:35.472Z,26.54
2019-05-19T12:35:07.721Z,25.65
2019-05-19T12:37:37.140Z,26.05
2019-05-19T12:40:06.937Z,26.03
2019-05-19T12:42:36.316Z,25.89
2019-05-19T12:45:07.558Z,26.44
2019-05-19T12:47:36.932Z,25.11
2019-05-19T12:50:07.035Z,25.33
2019-05-19T12:52:36.629Z,25.15
2019-05-19T12:55:06.608Z,25.05
2019-05-19T12:57:35.891Z,23.93
2019-05-19T13:00:05.645Z,23.65
2019-05-19T13:02:38.076Z,24.12
2019-05-19T13:05:07.911Z,23.20
2019-05-19T13:07:37.198Z,23.12
2019-05-19T13:10:08.803Z,22.81
2019-05-19T13:12:38.142Z,22.14
2019-05-19T13:15:10.385Z,21.84
2019-05-19T13:17:39.666Z,21.56
2019-05-19T13:20:09.066Z,21.99
2019-05-19T13:22:38.386Z,22.26
2019-05-19T13:25:07.987Z,22.34
2019-05-19T13:27:37.304Z,22.18
2019-05-19T13:30:07.743Z,22.12
2019-05-19T13:32:37.047Z,21.72
2019-05-19T13:35:07.416Z,21.82
2019-05-19T13:37:36.884Z,22.32
2019-05-19T13:40:06.694Z,22.67
2019-05-19T13:42:36.024Z,22.56
2019-05-19T13:45:07.228Z,22.59
2019-05-19T13:47:38.429Z,23.03
2019-05-19T13:50:08.686Z,22.38
2019-05-19T13:52:37.985Z,22.85
2019-05-19T13:55:08.525Z,23.10
2019-05-19T13:57:37.804Z,22.74
2019-05-19T14:00:07.523Z,22.36
2019-05-19T14:02:37.078Z,22.42
2019-05-19T14:05:06.605Z,22.52
2019-05-19T14:07:35.906Z,22.42
2019-05-19T14:10:08.944Z,22.56
2019-05-19T14:12:38.220Z,22.60
2019-05-19T14:15:11.321Z,22.66
2019-05-19T14:17:41.671Z,22.48
2019-05-19T14:20:12.122Z,22.22
2019-05-19T14:22:41.488Z,21.84
2019-05-19T14:25:10.990Z,21.87
2019-05-19T14:27:40.231Z,21.55
2019-05-19T14:30:09.798Z,21.79
2019-05-19T14:32:39.181Z,21.83
2019-05-19T14:35:08.695Z,22.01
2019-05-19T14:37:38.028Z,21.97
2019-05-19T14:40:08.069Z,21.52
2019-05-19T14:42:50.543Z,21.89
2019-05-19T14:45:20.150Z,21.78
2019-05-19T14:47:49.643Z,21.60
2019-05-19T14:50:20.555Z,21.62
2019-05-19T14:52:49.859Z,21.59
2019-05-19T14:55:19.371Z,21.13
2019-05-19T14:57:48.691Z,20.83
2019-05-19T15:00:18.736Z,20.87
2019-05-19T15:02:48.030Z,21.16
2019-05-19T15:05:17.408Z,21.00
2019-05-19T15:07:46.715Z,20.49
2019-05-19T15:10:16.291Z,20.89
2019-05-19T15:12:45.523Z,20.83
2019-05-19T15:15:15.074Z,20.66
2019-05-19T15:17:44.382Z,20.75
2019-05-19T15:20:14.624Z,21.06
2019-05-19T15:22:43.923Z,20.73
2019-05-19T15:25:15.372Z,20.86
2019-05-19T15:27:57.856Z,21.31
2019-05-19T15:30:16.532Z,21.27
2019-05-19T15:32:45.813Z,21.34
2019-05-19T15:35:15.186Z,21.13
2019-05-19T15:37:44.489Z,20.52
2019-05-19T15:40:15.312Z,19.55
2019-05-19T15:42:44.717Z,19.19
2019-05-19T15:45:14.544Z,19.12
2019-05-19T15:47:43.851Z,19.05
2019-05-19T15:50:13.410Z,19.00
2019-05-19T15:52:42.715Z,18.76
2019-05-19T15:55:12.067Z,18.70
2019-05-19T15:57:41.390Z,18.37
2019-05-19T16:00:11.315Z,18.36
2019-05-19T16:02:42.163Z,18.32
2019-05-19T16:05:11.463Z,17.96
2019-05-19T16:07:40.776Z,18.09
2019-05-19T16:10:10.331Z,17.95
2019-05-19T16:12:39.735Z,17.74
2019-05-19T16:15:09.392Z,17.57
2019-05-19T16:17:38.709Z,17.45
2019-05-19T16:20:08.975Z,17.32
2019-05-19T16:22:39.538Z,17.17
2019-05-19T16:25:09.134Z,17.02
2019-05-19T16:27:38.661Z,16.78
2019-05-19T16:30:08.936Z,16.73
2019-05-19T16:32:39.843Z,16.76
2019-05-19T16:35:09.336Z,17.03
2019-05-19T16:37:38.984Z,16.76
2019-05-19T16:40:08.602Z,16.50
2019-05-19T16:42:37.917Z,16.34
2019-05-19T16:45:08.585Z,16.46
2019-05-19T16:47:38.978Z,16.60
2019-05-19T16:50:08.728Z,16.49
2019-05-19T16:52:38.146Z,16.11
2019-05-19T16:55:27.735Z,16.08
2019-05-19T16:57:57.034Z,16.11
2019-05-19T17:00:27.874Z,15.80
2019-05-19T17:02:58.868Z,15.74
2019-05-19T17:05:28.190Z,15.69
2019-05-19T17:07:57.969Z,15.63
2019-05-19T17:10:27.289Z,15.71
2019-05-19T17:12:56.633Z,15.43
2019-05-19T17:15:25.940Z,15.35
2019-05-19T17:17:55.223Z,15.25
2019-05-19T17:20:24.788Z,15.13
2019-05-19T17:22:54.180Z,15.10
2019-05-19T17:25:23.496Z,15.17
2019-05-19T17:27:52.763Z,15.23
2019-05-19T17:30:22.484Z,15.24
2019-05-19T17:32:51.789Z,15.15
2019-05-19T17:35:21.095Z,15.02
2019-05-19T17:37:50.527Z,14.87
2019-05-19T17:40:20.080Z,14.84
2019-05-19T17:42:49.383Z,15.01
2019-05-19T17:45:20.744Z,14.84
2019-05-19T17:47:53.187Z,14.63
2019-05-19T17:50:34.532Z,14.47
2019-05-19T17:53:04.392Z,14.40
2019-05-19T17:55:34.808Z,14.42
2019-05-19T17:58:04.791Z,14.23
2019-05-19T18:00:39.233Z,14.14
2019-05-19T18:03:08.864Z,14.01
2019-05-19T18:05:38.357Z,13.84
2019-05-19T18:08:07.656Z,13.61
2019-05-19T18:10:37.052Z,13.42
2019-05-19T18:13:07.473Z,13.54
2019-05-19T18:15:37.234Z,13.70
2019-05-19T18:18:06.611Z,13.61
2019-05-19T18:20:35.999Z,13.62
2019-05-19T18:23:05.389Z,13.63
2019-05-19T18:25:34.737Z,13.63
2019-05-19T18:28:03.992Z,13.59
2019-05-19T18:30:33.402Z,13.52
2019-05-19T18:33:02.702Z,13.41
2019-05-19T18:35:32.964Z,13.38
2019-05-19T18:38:02.239Z,13.13
2019-05-19T18:40:31.552Z,13.06
2019-05-19T18:43:00.860Z,12.94
2019-05-19T18:45:30.168Z,12.89
2019-05-19T18:47:59.443Z,13.00
2019-05-19T18:50:28.754Z,12.94
2019-05-19T18:52:58.083Z,12.88
2019-05-19T18:55:27.378Z,13.00
2019-05-19T18:57:56.681Z,12.84
2019-05-19T19:00:37.024Z,12.88
2019-05-19T19:03:06.680Z,12.89
2019-05-19T19:05:36.057Z,12.77
2019-05-19T19:08:05.461Z,12.71
2019-05-19T19:10:34.785Z,12.63
2019-05-19T19:13:04.088Z,12.66
2019-05-19T19:15:33.425Z,12.65
2019-05-19T19:18:02.719Z,12.77
2019-05-19T19:20:32.541Z,12.77
2019-05-19T19:23:01.819Z,12.87
2019-05-19T19:25:31.193Z,12.84
2019-05-19T19:28:00.506Z,12.75
2019-05-19T19:30:29.793Z,12.67
2019-05-19T19:32:59.108Z,12.65
2019-05-19T19:35:38.208Z,12.70
2019-05-19T19:37:59.511Z,12.70
2019-05-19T19:40:30.352Z,12.75
2019-05-19T19:43:00.356Z,12.81
2019-05-19T19:45:30.989Z,12.82
2019-05-19T19:48:00.357Z,12.78
2019-05-19T19:50:29.675Z,12.76
2019-05-19T19:52:58.987Z,12.80
2019-05-19T19:55:28.475Z,12.87
2019-05-19T19:57:57.801Z,12.84
2019-05-19T20:00:35.992Z,12.89
2019-05-19T20:03:08.235Z,12.74
2019-05-19T20:05:37.898Z,12.69
2019-05-19T20:08:07.567Z,12.69
2019-05-19T20:10:38.341Z,12.70
2019-05-19T20:13:07.667Z,12.73
2019-05-19T20:15:37.500Z,12.67
2019-05-19T20:18:06.956Z,12.64
2019-05-19T20:20:36.280Z,12.63
2019-05-19T20:23:05.581Z,12.65
2019-05-19T20:25:37.149Z,12.66
2019-05-19T20:28:06.845Z,12.72
2019-05-19T20:30:37.249Z,12.77
2019-05-19T20:33:06.658Z,12.75
2019-05-19T20:35:36.226Z,12.73
2019-05-19T20:38:05.550Z,12.77
2019-05-19T20:40:34.834Z,12.86
2019-05-19T20:43:04.118Z,12.86
2019-05-19T20:45:33.810Z,12.84
2019-05-19T20:48:03.166Z,12.85
2019-05-19T20:50:32.472Z,12.72
2019-05-19T20:53:01.868Z,12.72
2019-05-19T20:55:31.251Z,12.76
2019-05-19T20:58:00.552Z,12.73
2019-05-19T21:00:29.868Z,12.61
2019-05-19T21:02:59.181Z,12.67
2019-05-19T21:05:29.577Z,12.56
2019-05-19T21:07:58.951Z,12.54
2019-05-19T21:10:29.733Z,12.52
2019-05-19T21:13:00.133Z,12.44
2019-05-19T21:15:29.423Z,12.50
2019-05-19T21:17:58.751Z,12.54
2019-05-19T21:20:28.187Z,12.50
2019-05-19T21:22:57.526Z,12.54
2019-05-19T21:25:26.828Z,12.42
2019-05-19T21:27:56.156Z,12.41
2019-05-19T21:30:25.466Z,12.50
2019-05-19T21:32:54.791Z,12.42
2019-05-19T21:35:24.102Z,12.49
2019-05-19T21:37:53.422Z,12.48
2019-05-19T21:40:22.741Z,12.50
2019-05-19T21:42:52.062Z,12.53
2019-05-19T21:45:21.349Z,12.53
2019-05-19T21:47:50.661Z,12.54
2019-05-19T21:50:19.981Z,12.48
2019-05-19T21:52:49.283Z,12.49
2019-05-19T21:55:18.564Z,12.55
2019-05-19T21:57:47.902Z,12.49
2019-05-19T22:00:18.004Z,12.54
2019-05-19T22:02:48.953Z,12.56
2019-05-19T22:05:19.800Z,12.50
2019-05-19T22:07:57.075Z,12.53
2019-05-19T22:10:26.426Z,12.46
2019-05-19T22:12:55.746Z,12.42
2019-05-19T22:15:25.037Z,12.49
2019-05-19T22:17:54.354Z,12.45
2019-05-19T22:20:23.667Z,12.40
2019-05-19T22:22:52.966Z,12.37
2019-05-19T22:25:22.282Z,12.35
2019-05-19T22:27:51.586Z,12.36
2019-05-19T22:30:20.951Z,12.33
2019-05-19T22:32:50.268Z,12.35
2019-05-19T22:35:19.864Z,12.34
2019-05-19T22:37:49.247Z,12.34
2019-05-19T22:40:18.527Z,12.35
2019-05-19T22:42:47.834Z,12.27
2019-05-19T22:45:17.121Z,12.22
2019-05-19T22:47:46.456Z,12.23
2019-05-19T22:50:16.016Z,12.22
2019-05-19T22:52:45.322Z,12.26
2019-05-19T22:55:14.849Z,12.30
2019-05-19T22:57:44.148Z,12.26
2019-05-19T23:00:15.312Z,12.24
2019-05-19T23:02:45.468Z,12.22
2019-05-19T23:05:16.056Z,12.21
2019-05-19T23:07:45.412Z,12.20
2019-05-19T23:10:14.872Z,12.25
2019-05-19T23:12:44.228Z,12.07
2019-05-19T23:15:13.906Z,12.04
2019-05-19T23:17:43.200Z,12.14
2019-05-19T23:20:13.050Z,12.09
2019-05-19T23:22:42.976Z,12.09
2019-05-19T23:25:12.457Z,12.03
2019-05-19T23:27:41.748Z,12.09
2019-05-19T23:30:11.596Z,12.03
2019-05-19T23:32:40.883Z,11.95
2019-05-19T23:35:10.204Z,11.92
2019-05-19T23:37:39.488Z,11.98
2019-05-19T23:40:09.855Z,11.95
2019-05-19T23:42:39.152Z,11.96
2019-05-19T23:45:08.542Z,12.02
2019-05-19T23:47:37.845Z,12.03
2019-05-19T23:50:07.525Z,12.10
2019-05-19T23:52:36.812Z,12.05
2019-05-19T23:55:06.785Z,12.11
2019-05-19T23:57:37.035Z,12.13
